createdAt,value
2019-04-20T00:00:43.043Z,0.00
2019-04-20T00:01:40.777Z,0.00
2019-04-20T00:02:38.341Z,0.00
2019-04-20T00:03:42.376Z,0.00
2019-04-20T00:04:39.032Z,0.00
2019-04-20T00:05:39.197Z,0.00
2019-04-20T00:06:46.265Z,0.00
2019-04-20T00:07:39.728Z,0.00
2019-04-20T00:08:41.150Z,0.00
2019-04-20T00:09:40.104Z,0.00
2019-04-20T00:10:47.536Z,0.00
2019-04-20T00:11:50.705Z,0.00
2019-04-20T00:12:57.040Z,0.00
2019-04-20T00:13:48.884Z,0.00
2019-04-20T00:14:40.497Z,0.00
2019-04-20T00:15:38.950Z,0.00
2019-04-20T00:16:38.169Z,0.00
2019-04-20T00:17:39.387Z,0.00
2019-04-20T00:18:43.214Z,0.00
2019-04-20T00:19:45.052Z,0.00
2019-04-20T00:20:40.743Z,0.00
2019-04-20T00:21:45.428Z,0.00
2019-04-20T00:22:45.189Z,0.00
2019-04-20T00:23:42.028Z,0.00
2019-04-20T00:24:39.294Z,0.00
2019-04-20T00:25:50.148Z,0.00
2019-04-20T00:27:59.796Z,0.00
2019-04-20T00:28:58.923Z,0.00
2019-04-20T00:29:54.247Z,0.00
2019-04-20T00:30:53.349Z,0.00
2019-04-20T00:31:49.238Z,0.00
2019-04-20T00:32:54.698Z,0.00
2019-04-20T00:33:50.752Z,0.00
2019-04-20T00:34:40.582Z,0.00
2019-04-20T00:35:40.156Z,0.00
2019-04-20T00:36:39.104Z,0.00
2019-04-20T00:37:38.090Z,0.00
2019-04-20T00:38:45.304Z,0.00
2019-04-20T00:39:38.285Z,0.00
2019-04-20T00:40:39.165Z,0.00
2019-04-20T00:41:43.841Z,0.00
2019-04-20T00:42:45.148Z,0.00
2019-04-20T00:43:40.843Z,0.00
2019-04-20T00:44:41.303Z,0.00
2019-04-20T00:45:46.801Z,0.00
2019-04-20T00:46:51.279Z,0.00
2019-04-20T00:47:48.963Z,0.00
2019-04-20T00:48:48.550Z,0.00
2019-04-20T00:49:56.619Z,0.00
2019-04-20T00:50:48.817Z,0.00
2019-04-20T00:51:50.994Z,0.00
2019-04-20T00:52:54.312Z,0.00
2019-04-20T00:53:43.250Z,0.00
2019-04-20T00:54:39.069Z,0.00
2019-04-20T00:55:38.055Z,0.00
2019-04-20T00:56:39.180Z,0.00
2019-04-20T00:57:46.604Z,0.00
2019-04-20T00:58:52.314Z,0.00
2019-04-20T00:59:59.218Z,0.00
2019-04-20T01:01:05.636Z,0.00
2019-04-20T01:01:59.839Z,0.00
2019-04-20T01:02:50.608Z,0.00
2019-04-20T01:03:52.146Z,0.00
2019-04-20T01:04:58.555Z,0.00
2019-04-20T01:05:59.659Z,0.00
2019-04-20T01:06:50.384Z,0.00
2019-04-20T01:07:46.433Z,0.00
2019-04-20T01:08:38.074Z,0.00
2019-04-20T01:09:37.622Z,0.00
2019-04-20T01:10:44.820Z,0.00
2019-04-20T01:11:42.166Z,0.00
2019-04-20T01:12:40.705Z,0.00
2019-04-20T01:13:45.903Z,0.00
2019-04-20T01:14:43.378Z,0.00
2019-04-20T01:15:48.385Z,0.00
2019-04-20T01:16:45.213Z,0.00
2019-04-20T01:17:37.997Z,0.00
2019-04-20T01:18:37.554Z,0.00
2019-04-20T01:19:37.475Z,0.00
2019-04-20T01:20:37.470Z,0.00
2019-04-20T01:21:38.379Z,0.00
2019-04-20T01:22:45.504Z,0.00
2019-04-20T01:23:46.150Z,0.00
2019-04-20T01:24:43.278Z,0.00
2019-04-20T01:25:42.425Z,0.00
2019-04-20T01:26:45.586Z,0.00
2019-04-20T01:27:51.329Z,0.00
2019-04-20T01:28:52.808Z,0.00
2019-04-20T01:29:44.356Z,0.00
2019-04-20T01:30:44.577Z,0.00
2019-04-20T01:31:54.563Z,0.00
2019-04-20T01:32:55.963Z,0.00
2019-04-20T01:33:50.047Z,0.00
2019-04-20T01:34:51.078Z,0.00
2019-04-20T01:35:53.236Z,0.00
2019-04-20T01:36:55.687Z,0.00
2019-04-20T01:37:57.618Z,0.00
2019-04-20T01:38:55.345Z,0.00
2019-04-20T01:39:44.365Z,0.00
2019-04-20T01:40:38.242Z,0.00
2019-04-20T01:41:37.273Z,0.00
2019-04-20T01:42:38.461Z,0.00
2019-04-20T01:43:37.444Z,0.00
2019-04-20T01:44:43.396Z,0.00
2019-04-20T01:45:40.508Z,0.00
2019-04-20T01:46:45.601Z,0.00
2019-04-20T01:47:45.470Z,0.00
2019-04-20T01:48:41.145Z,0.00
2019-04-20T01:49:39.031Z,0.00
2019-04-20T01:50:47.839Z,0.00
2019-04-20T01:51:47.037Z,0.00
2019-04-20T01:52:51.766Z,0.00
2019-04-20T01:53:55.938Z,0.00
2019-04-20T01:55:03.536Z,0.00
2019-04-20T01:55:50.386Z,0.00
2019-04-20T01:56:47.633Z,0.00
2019-04-20T01:57:56.297Z,0.00
2019-04-20T01:58:55.363Z,0.00
2019-04-20T01:59:46.039Z,0.00
2019-04-20T02:00:40.738Z,0.00
2019-04-20T02:01:39.693Z,0.00
2019-04-20T02:02:45.010Z,0.00
2019-04-20T02:03:41.988Z,0.00
2019-04-20T02:04:43.152Z,0.00
2019-04-20T02:05:40.006Z,0.00
2019-04-20T02:06:43.391Z,0.00
2019-04-20T02:07:42.284Z,0.00
2019-04-20T02:08:37.955Z,0.00
2019-04-20T02:09:43.318Z,0.00
2019-04-20T02:10:44.161Z,0.00
2019-04-20T02:11:42.590Z,0.00
2019-04-20T02:12:39.259Z,0.00
2019-04-20T02:13:46.726Z,0.00
2019-04-20T02:14:45.388Z,0.00
2019-04-20T02:15:43.307Z,0.00
2019-04-20T02:16:42.695Z,0.00
2019-04-20T02:17:46.183Z,0.00
2019-04-20T02:18:51.633Z,0.00
2019-04-20T02:19:58.508Z,0.00
2019-04-20T02:20:59.867Z,0.00
2019-04-20T02:21:51.999Z,0.00
2019-04-20T02:22:51.865Z,0.00
2019-04-20T02:23:48.234Z,0.00
2019-04-20T02:24:38.778Z,0.00
2019-04-20T02:25:37.667Z,0.00
2019-04-20T02:26:36.805Z,0.00
2019-04-20T02:27:44.669Z,0.00
2019-04-20T02:29:02.045Z,0.00
2019-04-20T02:30:04.758Z,0.00
2019-04-20T02:31:18.451Z,0.00
2019-04-20T02:33:18.369Z,0.00
2019-04-20T02:34:20.477Z,0.00
2019-04-20T02:35:07.637Z,0.00
2019-04-20T02:36:27.485Z,0.00
2019-04-20T02:37:13.607Z,0.00
2019-04-20T02:39:22.220Z,0.00
2019-04-20T02:40:09.110Z,0.00
2019-04-20T02:41:11.471Z,0.00
2019-04-20T02:42:19.653Z,0.00
2019-04-20T02:43:15.177Z,0.00
2019-04-20T02:44:23.979Z,0.00
2019-04-20T02:45:18.701Z,0.00
2019-04-20T02:46:11.564Z,0.00
2019-04-20T02:49:26.189Z,0.00
2019-04-20T02:50:15.276Z,0.00
2019-04-20T02:51:05.758Z,0.00
2019-04-20T02:52:33.149Z,0.00
2019-04-20T02:53:15.552Z,0.00
2019-04-20T02:55:09.554Z,0.00
2019-04-20T02:56:17.415Z,0.00
2019-04-20T02:57:10.252Z,0.00
2019-04-20T02:58:07.753Z,0.00
2019-04-20T03:01:00.196Z,0.00
2019-04-20T03:01:54.786Z,0.00
2019-04-20T03:02:48.614Z,0.00
2019-04-20T03:03:43.613Z,0.00
2019-04-20T03:04:45.280Z,0.00
2019-04-20T03:05:45.957Z,0.00
2019-04-20T03:06:56.003Z,0.00
2019-04-20T03:07:57.543Z,0.00
2019-04-20T03:08:56.603Z,0.00
2019-04-20T03:09:56.328Z,0.00
2019-04-20T03:11:03.386Z,0.00
2019-04-20T03:12:59.349Z,0.00
2019-04-20T03:13:59.280Z,0.00
2019-04-20T03:14:51.502Z,0.00
2019-04-20T03:15:56.480Z,0.00
2019-04-20T03:16:57.198Z,0.00
2019-04-20T03:17:59.167Z,0.00
2019-04-20T03:18:53.742Z,0.00
2019-04-20T03:19:51.219Z,0.00
2019-04-20T03:20:57.566Z,0.00
2019-04-20T03:22:04.110Z,0.00
2019-04-20T03:23:17.494Z,0.00
2019-04-20T03:24:06.447Z,0.00
2019-04-20T03:25:01.806Z,0.00
2019-04-20T03:25:59.447Z,0.00
2019-04-20T03:26:54.483Z,0.00
2019-04-20T03:27:59.618Z,0.00
2019-04-20T03:28:54.211Z,0.00
2019-04-20T03:29:56.639Z,0.00
2019-04-20T03:33:12.648Z,0.00
2019-04-20T03:34:38.454Z,0.00
2019-04-20T03:35:05.663Z,0.00
2019-04-20T03:36:10.396Z,0.00
2019-04-20T03:36:59.352Z,0.00
2019-04-20T03:38:00.170Z,0.00
2019-04-20T03:38:58.522Z,0.00
2019-04-20T03:39:47.613Z,0.00
2019-04-20T03:40:49.817Z,0.00
2019-04-20T03:41:42.037Z,0.00
2019-04-20T03:42:37.083Z,0.00
2019-04-20T03:43:37.066Z,4.00
2019-04-20T03:44:37.654Z,0.00
2019-04-20T03:45:44.585Z,4.00
2019-04-20T03:46:44.665Z,4.00
2019-04-20T03:47:47.491Z,0.00
2019-04-20T03:48:51.860Z,4.00
2019-04-20T03:50:01.293Z,4.00
2019-04-20T03:50:56.394Z,8.00
2019-04-20T03:51:57.408Z,4.00
2019-04-20T03:52:58.054Z,4.00
2019-04-20T03:53:57.337Z,4.00
2019-04-20T03:54:47.889Z,8.00
2019-04-20T03:55:52.975Z,8.00
2019-04-20T03:56:54.112Z,12.00
2019-04-20T03:57:59.960Z,12.00
2019-04-20T03:58:50.560Z,12.00
2019-04-20T03:59:56.213Z,12.00
2019-04-20T04:00:50.501Z,16.00
2019-04-20T04:02:17.094Z,16.00
2019-04-20T04:03:08.453Z,20.00
2019-04-20T04:04:03.912Z,20.00
2019-04-20T04:04:54.575Z,24.00
2019-04-20T04:05:50.708Z,24.00
2019-04-20T04:06:44.359Z,28.00
2019-04-20T04:07:42.308Z,28.00
2019-04-20T04:08:42.648Z,32.00
2019-04-20T04:09:53.763Z,36.00
2019-04-20T04:10:58.501Z,36.00
2019-04-20T04:11:51.363Z,40.00
2019-04-20T04:12:39.904Z,44.00
2019-04-20T04:13:37.640Z,48.00
2019-04-20T04:14:36.725Z,48.00
2019-04-20T04:15:42.765Z,52.00
2019-04-20T04:16:42.920Z,56.00
2019-04-20T04:17:41.603Z,60.00
2019-04-20T04:18:42.161Z,64.00
2019-04-20T04:19:39.613Z,68.00
2019-04-20T04:20:43.662Z,72.00
2019-04-20T04:21:49.811Z,76.00
2019-04-20T04:22:51.499Z,80.00
2019-04-20T04:23:48.964Z,88.00
2019-04-20T04:24:52.447Z,92.00
2019-04-20T04:25:58.047Z,92.00
2019-04-20T04:26:51.136Z,100.00
2019-04-20T04:27:48.990Z,104.00
2019-04-20T04:28:51.962Z,112.00
2019-04-20T04:30:00.391Z,112.00
2019-04-20T04:30:58.127Z,120.00
2019-04-20T04:32:03.665Z,124.00
2019-04-20T04:33:20.478Z,132.00
2019-04-20T04:34:52.683Z,140.00
2019-04-20T04:35:51.517Z,144.00
2019-04-20T04:36:53.937Z,152.00
2019-04-20T04:37:53.896Z,156.00
2019-04-20T04:39:03.602Z,160.00
2019-04-20T04:40:01.184Z,168.00
2019-04-20T04:41:03.204Z,172.00
2019-04-20T04:42:01.876Z,176.00
2019-04-20T04:42:57.906Z,184.00
2019-04-20T04:43:53.903Z,188.00
2019-04-20T04:44:46.419Z,192.00
2019-04-20T04:45:36.983Z,196.00
2019-04-20T04:46:44.184Z,204.00
2019-04-20T04:47:36.691Z,208.00
2019-04-20T04:48:40.639Z,216.00
2019-04-20T04:49:40.059Z,216.00
2019-04-20T04:50:44.821Z,224.00
2019-04-20T04:51:46.753Z,228.00
2019-04-20T04:52:45.347Z,232.00
2019-04-20T04:53:44.349Z,240.00
2019-04-20T04:54:45.280Z,244.00
2019-04-20T04:55:43.866Z,252.00
2019-04-20T04:56:35.556Z,256.00
2019-04-20T04:57:35.092Z,260.00
2019-04-20T04:58:36.284Z,268.00
2019-04-20T04:59:36.243Z,272.00
2019-04-20T05:00:36.466Z,276.00
2019-04-20T05:01:37.206Z,284.00
2019-04-20T05:02:40.938Z,288.00
2019-04-20T05:03:57.814Z,292.00
2019-04-20T05:04:57.777Z,300.00
2019-04-20T05:05:54.636Z,304.00
2019-04-20T05:06:53.605Z,308.00
2019-04-20T05:07:49.634Z,316.00
2019-04-20T05:08:42.004Z,328.00
2019-04-20T05:09:35.970Z,332.00
2019-04-20T05:10:34.943Z,336.00
2019-04-20T05:11:35.459Z,344.00
2019-04-20T05:12:37.002Z,352.00
2019-04-20T05:13:41.851Z,360.00
2019-04-20T05:14:48.215Z,364.00
2019-04-20T05:15:48.463Z,372.00
2019-04-20T05:16:50.034Z,380.00
2019-04-20T05:17:57.351Z,388.00
2019-04-20T05:18:59.153Z,396.00
2019-04-20T05:19:52.977Z,400.00
2019-04-20T05:20:58.832Z,408.00
2019-04-20T05:21:58.781Z,416.00
2019-04-20T05:22:50.963Z,424.00
2019-04-20T05:23:44.415Z,432.00
2019-04-20T05:24:57.163Z,436.00
2019-04-20T05:25:56.947Z,448.00
2019-04-20T05:26:56.869Z,452.00
2019-04-20T05:27:56.358Z,464.00
2019-04-20T05:28:46.254Z,472.00
2019-04-20T05:29:36.577Z,476.00
2019-04-20T05:30:43.907Z,488.00
2019-04-20T05:31:45.984Z,496.00
2019-04-20T05:32:44.849Z,504.00
2019-04-20T05:34:03.452Z,512.00
2019-04-20T05:34:58.198Z,520.00
2019-04-20T05:35:59.541Z,532.00
2019-04-20T05:36:46.272Z,540.00
2019-04-20T05:38:03.977Z,548.00
2019-04-20T05:39:09.206Z,560.00
2019-04-20T05:39:59.334Z,564.00
2019-04-20T05:40:59.783Z,568.00
2019-04-20T05:41:51.478Z,580.00
2019-04-20T05:42:54.111Z,588.00
2019-04-20T05:43:50.743Z,600.00
2019-04-20T05:45:07.300Z,608.00
2019-04-20T05:45:50.536Z,612.00
2019-04-20T05:46:59.514Z,620.00
2019-04-20T05:47:52.469Z,624.00
2019-04-20T05:48:58.974Z,632.00
2019-04-20T05:49:56.143Z,636.00
2019-04-20T05:50:53.216Z,644.00
2019-04-20T05:51:56.005Z,648.00
2019-04-20T05:53:01.720Z,652.00
2019-04-20T05:53:56.464Z,660.00
2019-04-20T05:54:59.034Z,672.00
2019-04-20T05:55:55.992Z,684.00
2019-04-20T05:57:00.609Z,708.00
2019-04-20T05:58:00.354Z,720.00
2019-04-20T05:58:56.411Z,736.00
2019-04-20T06:00:03.590Z,744.00
2019-04-20T06:01:00.396Z,744.00
2019-04-20T06:01:58.871Z,744.00
2019-04-20T06:02:56.011Z,736.00
2019-04-20T06:03:55.491Z,736.00
2019-04-20T06:05:05.632Z,740.00
2019-04-20T06:06:05.157Z,748.00
2019-04-20T06:06:56.716Z,752.00
2019-04-20T06:07:55.066Z,756.00
2019-04-20T06:08:59.640Z,756.00
2019-04-20T06:09:59.959Z,756.00
2019-04-20T06:10:56.739Z,764.00
2019-04-20T06:12:07.496Z,764.00
2019-04-20T06:12:51.998Z,768.00
2019-04-20T06:13:47.054Z,776.00
2019-04-20T06:14:48.269Z,780.00
2019-04-20T06:15:53.883Z,784.00
2019-04-20T06:16:55.871Z,788.00
2019-04-20T06:17:53.361Z,792.00
2019-04-20T06:18:49.590Z,796.00
2019-04-20T06:20:00.473Z,800.00
2019-04-20T06:21:00.823Z,804.00
2019-04-20T06:21:57.511Z,808.00
2019-04-20T06:22:54.622Z,808.00
2019-04-20T06:23:59.497Z,816.00
2019-04-20T06:25:09.979Z,820.00
2019-04-20T06:27:01.036Z,824.00
2019-04-20T06:27:57.163Z,828.00
2019-04-20T06:28:46.357Z,824.00
2019-04-20T06:29:51.376Z,828.00
2019-04-20T06:30:48.014Z,832.00
2019-04-20T06:31:53.160Z,832.00
2019-04-20T06:33:02.983Z,836.00
2019-04-20T06:34:08.831Z,840.00
2019-04-20T06:34:53.548Z,836.00
2019-04-20T06:36:07.556Z,844.00
2019-04-20T06:38:03.050Z,852.00
2019-04-20T06:39:02.656Z,852.00
2019-04-20T06:40:10.758Z,852.00
2019-04-20T06:41:05.961Z,852.00
2019-04-20T06:42:56.597Z,856.00
2019-04-20T06:44:02.193Z,856.00
2019-04-20T06:45:01.773Z,856.00
2019-04-20T06:46:05.612Z,860.00
2019-04-20T06:47:04.192Z,864.00
2019-04-20T06:48:01.041Z,864.00
2019-04-20T06:49:04.331Z,872.00
2019-04-20T06:49:50.437Z,872.00
2019-04-20T06:50:49.517Z,876.00
2019-04-20T06:52:52.637Z,880.00
2019-04-20T06:53:48.658Z,876.00
2019-04-20T06:54:48.593Z,876.00
2019-04-20T06:56:04.326Z,876.00
2019-04-20T06:56:57.106Z,876.00
2019-04-20T06:57:56.257Z,884.00
2019-04-20T06:58:58.863Z,884.00
2019-04-20T06:59:53.136Z,884.00
2019-04-20T07:00:58.105Z,884.00
2019-04-20T07:02:19.527Z,884.00
2019-04-20T07:02:57.518Z,884.00
2019-04-20T07:04:10.837Z,888.00
2019-04-20T07:06:19.530Z,888.00
2019-04-20T07:07:02.332Z,892.00
2019-04-20T07:08:00.730Z,892.00
2019-04-20T07:09:00.579Z,892.00
2019-04-20T07:10:08.799Z,896.00
2019-04-20T07:11:02.251Z,896.00
2019-04-20T07:11:51.863Z,896.00
2019-04-20T07:12:49.709Z,896.00
2019-04-20T07:13:43.501Z,896.00
2019-04-20T07:14:45.441Z,896.00
2019-04-20T07:15:49.638Z,896.00
2019-04-20T07:16:53.373Z,892.00
2019-04-20T07:18:08.177Z,892.00
2019-04-20T07:19:51.774Z,896.00
2019-04-20T07:21:15.957Z,892.00
2019-04-20T07:23:02.310Z,892.00
2019-04-20T07:24:03.405Z,896.00
2019-04-20T07:24:57.778Z,896.00
2019-04-20T07:25:55.636Z,896.00
2019-04-20T07:26:59.169Z,896.00
2019-04-20T07:27:53.578Z,896.00
2019-04-20T07:29:00.465Z,900.00
2019-04-20T07:30:08.073Z,900.00
2019-04-20T07:30:55.352Z,900.00
2019-04-20T07:31:50.031Z,900.00
2019-04-20T07:33:08.743Z,900.00
2019-04-20T07:33:59.354Z,900.00
2019-04-20T07:34:59.631Z,900.00
2019-04-20T07:35:52.373Z,904.00
2019-04-20T07:37:21.696Z,904.00
2019-04-20T07:38:21.035Z,908.00
2019-04-20T07:38:56.714Z,904.00
2019-04-20T07:40:02.228Z,904.00
2019-04-20T07:40:50.028Z,904.00
2019-04-20T07:42:00.687Z,904.00
2019-04-20T07:42:57.689Z,900.00
2019-04-20T07:44:05.902Z,904.00
2019-04-20T07:45:01.337Z,904.00
2019-04-20T07:45:58.805Z,904.00
2019-04-20T07:47:01.542Z,904.00
2019-04-20T07:48:01.699Z,900.00
2019-04-20T07:48:59.933Z,904.00
2019-04-20T07:49:52.615Z,904.00
2019-04-20T07:50:44.839Z,904.00
2019-04-20T07:51:38.403Z,904.00
2019-04-20T07:52:46.248Z,904.00
2019-04-20T07:53:52.166Z,904.00
2019-04-20T07:55:12.144Z,908.00
2019-04-20T07:55:55.154Z,912.00
2019-04-20T07:56:55.110Z,908.00
2019-04-20T07:57:50.085Z,904.00
2019-04-20T07:58:44.773Z,900.00
2019-04-20T07:59:50.928Z,900.00
2019-04-20T08:01:17.810Z,900.00
2019-04-20T08:02:01.462Z,900.00
2019-04-20T08:02:57.463Z,904.00
2019-04-20T08:03:58.784Z,904.00
2019-04-20T08:04:52.477Z,900.00
2019-04-20T08:05:44.261Z,900.00
2019-04-20T08:06:43.378Z,904.00
2019-04-20T08:07:45.717Z,900.00
2019-04-20T08:08:50.459Z,900.00
2019-04-20T08:09:42.066Z,896.00
2019-04-20T08:10:51.903Z,900.00
2019-04-20T08:11:55.143Z,900.00
2019-04-20T08:14:02.370Z,896.00
2019-04-20T08:15:04.948Z,892.00
2019-04-20T08:15:58.366Z,896.00
2019-04-20T08:17:12.155Z,896.00
2019-04-20T08:18:09.664Z,892.00
2019-04-20T08:18:55.397Z,892.00
2019-04-20T08:19:53.430Z,900.00
2019-04-20T08:20:57.662Z,900.00
2019-04-20T08:21:52.451Z,900.00
2019-04-20T08:22:53.729Z,904.00
2019-04-20T08:23:54.151Z,904.00
2019-04-20T08:24:48.294Z,908.00
2019-04-20T08:25:44.620Z,908.00
2019-04-20T08:26:41.579Z,912.00
2019-04-20T08:27:33.871Z,912.00
2019-04-20T08:28:42.600Z,912.00
2019-04-20T08:29:46.175Z,908.00
2019-04-20T08:30:48.641Z,908.00
2019-04-20T08:31:49.056Z,904.00
2019-04-20T08:32:51.563Z,908.00
2019-04-20T08:34:01.881Z,908.00
2019-04-20T08:34:54.695Z,908.00
2019-04-20T08:35:58.227Z,908.00
2019-04-20T08:36:55.771Z,908.00
2019-04-20T08:38:20.676Z,904.00
2019-04-20T08:40:10.311Z,904.00
2019-04-20T08:40:53.918Z,908.00
2019-04-20T08:41:56.375Z,904.00
2019-04-20T08:43:02.484Z,908.00
2019-04-20T08:44:30.904Z,912.00
2019-04-20T08:45:03.000Z,912.00
2019-04-20T08:45:57.089Z,916.00
2019-04-20T08:47:06.086Z,920.00
2019-04-20T08:47:58.172Z,916.00
2019-04-20T08:48:50.971Z,920.00
2019-04-20T08:49:57.117Z,924.00
2019-04-20T08:50:53.286Z,924.00
2019-04-20T08:52:08.276Z,932.00
2019-04-20T08:53:14.705Z,932.00
2019-04-20T08:53:51.778Z,932.00
2019-04-20T08:54:54.166Z,932.00
2019-04-20T08:55:45.326Z,932.00
2019-04-20T08:56:42.482Z,932.00
2019-04-20T08:57:33.578Z,928.00
2019-04-20T08:58:33.843Z,928.00
2019-04-20T08:59:35.025Z,932.00
2019-04-20T09:00:39.594Z,932.00
2019-04-20T09:01:35.708Z,932.00
2019-04-20T09:02:32.736Z,936.00
2019-04-20T09:03:43.851Z,940.00
2019-04-20T09:04:43.502Z,940.00
2019-04-20T09:05:45.560Z,936.00
2019-04-20T09:06:48.301Z,936.00
2019-04-20T09:07:39.054Z,936.00
2019-04-20T09:08:47.783Z,940.00
2019-04-20T09:09:52.575Z,944.00
2019-04-20T09:10:49.177Z,944.00
2019-04-20T09:11:57.706Z,944.00
2019-04-20T09:12:46.439Z,948.00
2019-04-20T09:13:40.570Z,948.00
2019-04-20T09:14:36.179Z,948.00
2019-04-20T09:15:34.189Z,948.00
2019-04-20T09:16:38.807Z,952.00
2019-04-20T09:17:39.815Z,952.00
2019-04-20T09:18:46.613Z,956.00
2019-04-20T09:19:39.927Z,960.00
2019-04-20T09:20:43.538Z,960.00
2019-04-20T09:21:43.703Z,960.00
2019-04-20T09:22:39.031Z,964.00
2019-04-20T09:23:45.687Z,960.00
2019-04-20T09:25:01.823Z,964.00
2019-04-20T09:26:04.798Z,964.00
2019-04-20T09:26:50.544Z,968.00
2019-04-20T09:27:42.888Z,964.00
2019-04-20T09:28:39.578Z,968.00
2019-04-20T09:29:44.432Z,972.00
2019-04-20T09:31:44.801Z,972.00
2019-04-20T09:32:44.049Z,976.00
2019-04-20T09:33:51.363Z,980.00
2019-04-20T09:34:53.210Z,980.00
2019-04-20T09:35:47.523Z,980.00
2019-04-20T09:36:46.150Z,984.00
2019-04-20T09:37:47.318Z,984.00
2019-04-20T09:38:44.273Z,988.00
2019-04-20T09:39:51.383Z,996.00
2019-04-20T09:40:51.022Z,992.00
2019-04-20T09:41:54.894Z,992.00
2019-04-20T09:42:32.004Z,992.00
2019-04-20T09:43:32.747Z,992.00
2019-04-20T09:44:39.810Z,992.00
2019-04-20T09:45:39.180Z,992.00
2019-04-20T09:46:37.858Z,992.00
2019-04-20T09:47:36.840Z,992.00
2019-04-20T09:48:40.465Z,996.00
2019-04-20T09:49:46.144Z,1000.00
2019-04-20T09:50:55.575Z,1004.00
2019-04-20T09:51:51.136Z,1008.00
2019-04-20T09:52:51.686Z,1012.00
2019-04-20T09:53:43.752Z,1016.00
2019-04-20T09:54:51.075Z,1016.00
2019-04-20T09:55:47.325Z,1016.00
2019-04-20T09:56:54.889Z,1020.00
2019-04-20T09:57:50.138Z,1020.00
2019-04-20T09:58:56.364Z,1028.00
2019-04-20T09:59:52.868Z,1020.00
2019-04-20T10:00:48.621Z,1016.00
2019-04-20T10:01:41.973Z,1008.00
2019-04-20T10:02:36.083Z,1008.00
2019-04-20T10:03:32.754Z,1012.00
2019-04-20T10:04:31.703Z,1020.00
2019-04-20T10:05:31.664Z,1016.00
2019-04-20T10:06:34.555Z,1020.00
2019-04-20T10:07:35.343Z,1016.00
2019-04-20T10:08:33.998Z,1016.00
2019-04-20T10:09:37.507Z,1016.00
2019-04-20T10:10:38.890Z,1016.00
2019-04-20T10:11:32.229Z,1016.00
2019-04-20T10:12:31.664Z,1024.00
2019-04-20T10:13:32.187Z,1024.00
2019-04-20T10:14:32.970Z,1020.00
2019-04-20T10:15:32.931Z,1016.00
2019-04-20T10:16:31.589Z,1016.00
2019-04-20T10:17:33.512Z,1012.00
2019-04-20T10:18:34.284Z,1020.00
2019-04-20T10:19:34.707Z,1020.00
2019-04-20T10:20:35.279Z,1028.00
2019-04-20T10:21:33.906Z,1032.00
2019-04-20T10:22:32.799Z,1028.00
2019-04-20T10:23:32.507Z,1032.00
2019-04-20T10:24:32.773Z,1028.00
2019-04-20T10:25:32.814Z,1028.00
2019-04-20T10:26:32.400Z,1028.00
2019-04-20T10:27:32.723Z,1028.00
2019-04-20T10:28:31.819Z,1028.00
2019-04-20T10:29:31.428Z,1028.00
2019-04-20T10:30:32.532Z,1032.00
2019-04-20T10:31:37.716Z,1028.00
2019-04-20T10:32:38.799Z,1028.00
2019-04-20T10:33:33.494Z,1028.00
2019-04-20T10:34:32.637Z,1032.00
2019-04-20T10:35:32.216Z,1040.00
2019-04-20T10:36:31.361Z,1040.00
2019-04-20T10:37:31.591Z,1040.00
2019-04-20T10:38:34.197Z,1040.00
2019-04-20T10:39:31.288Z,1044.00
2019-04-20T10:40:44.962Z,1040.00
2019-04-20T10:41:40.956Z,1040.00
2019-04-20T10:42:32.297Z,1032.00
2019-04-20T10:43:31.309Z,1040.00
2019-04-20T10:44:32.524Z,1040.00
2019-04-20T10:45:31.231Z,1044.00
2019-04-20T10:46:31.215Z,1040.00
2019-04-20T10:47:31.215Z,1044.00
2019-04-20T10:48:39.502Z,1040.00
2019-04-20T10:49:33.267Z,1036.00
2019-04-20T10:50:32.222Z,1044.00
2019-04-20T10:51:31.519Z,1040.00
2019-04-20T10:52:32.011Z,1036.00
2019-04-20T10:53:32.211Z,1040.00
2019-04-20T10:54:32.324Z,1044.00
2019-04-20T10:55:31.443Z,1040.00
2019-04-20T10:56:31.748Z,1040.00
2019-04-20T10:57:31.296Z,1040.00
2019-04-20T10:58:31.770Z,1036.00
2019-04-20T10:59:31.830Z,1028.00
2019-04-20T11:00:31.387Z,1032.00
2019-04-20T11:01:31.659Z,1036.00
2019-04-20T11:02:31.928Z,1032.00
2019-04-20T11:03:32.243Z,1028.00
2019-04-20T11:04:31.015Z,1024.00
2019-04-20T11:05:31.054Z,1028.00
2019-04-20T11:06:32.289Z,1024.00
2019-04-20T11:07:32.463Z,1028.00
2019-04-20T11:08:31.030Z,1020.00
2019-04-20T11:09:32.341Z,996.00
2019-04-20T11:10:46.847Z,1040.00
2019-04-20T11:11:33.590Z,1028.00
2019-04-20T11:12:30.948Z,1024.00
2019-04-20T11:13:32.971Z,1028.00
2019-04-20T11:14:34.812Z,1028.00
2019-04-20T11:15:30.968Z,1020.00
2019-04-20T11:16:30.894Z,1020.00
2019-04-20T11:17:31.808Z,1020.00
2019-04-20T11:18:31.415Z,1016.00
2019-04-20T11:19:31.591Z,1016.00
2019-04-20T11:20:31.100Z,1016.00
2019-04-20T11:21:32.246Z,1016.00
2019-04-20T11:22:30.853Z,1020.00
2019-04-20T11:23:32.026Z,1020.00
2019-04-20T11:24:32.194Z,1024.00
2019-04-20T11:25:30.783Z,1024.00
2019-04-20T11:26:32.177Z,1020.00
2019-04-20T11:27:32.118Z,1016.00
2019-04-20T11:28:30.762Z,1012.00
2019-04-20T11:29:31.914Z,1016.00
2019-04-20T11:30:32.089Z,1016.00
2019-04-20T11:31:36.370Z,1012.00
2019-04-20T11:32:30.774Z,1012.00
2019-04-20T11:33:32.000Z,1012.00
2019-04-20T11:34:33.962Z,996.00
2019-04-20T11:35:37.296Z,980.00
2019-04-20T11:36:30.989Z,988.00
2019-04-20T11:37:31.031Z,992.00
2019-04-20T11:38:31.211Z,992.00
2019-04-20T11:39:30.643Z,988.00
2019-04-20T11:40:30.907Z,988.00
2019-04-20T11:41:32.686Z,948.00
2019-04-20T11:42:31.879Z,960.00
2019-04-20T11:43:31.478Z,952.00
2019-04-20T11:44:32.126Z,948.00
2019-04-20T11:45:30.936Z,968.00
2019-04-20T11:46:30.610Z,972.00
2019-04-20T11:47:31.583Z,960.00
2019-04-20T11:48:31.699Z,980.00
2019-04-20T11:49:31.353Z,988.00
2019-04-20T11:50:31.580Z,1000.00
2019-04-20T11:51:31.766Z,1008.00
2019-04-20T11:52:31.962Z,1016.00
2019-04-20T11:53:32.267Z,1016.00
2019-04-20T11:54:30.586Z,1004.00
2019-04-20T11:55:30.719Z,1012.00
2019-04-20T11:56:36.184Z,1008.00
2019-04-20T11:57:31.279Z,996.00
2019-04-20T11:58:30.471Z,992.00
2019-04-20T11:59:30.630Z,988.00
2019-04-20T12:00:37.066Z,976.00
2019-04-20T12:01:37.110Z,984.00
2019-04-20T12:02:37.156Z,984.00
2019-04-20T12:03:41.665Z,996.00
2019-04-20T12:04:41.474Z,992.00
2019-04-20T12:05:38.010Z,988.00
2019-04-20T12:06:30.816Z,988.00
2019-04-20T12:07:32.313Z,988.00
2019-04-20T12:08:32.158Z,984.00
2019-04-20T12:09:31.378Z,964.00
2019-04-20T12:10:31.515Z,964.00
2019-04-20T12:11:39.344Z,968.00
2019-04-20T12:12:39.001Z,980.00
2019-04-20T12:13:31.271Z,984.00
2019-04-20T12:14:30.506Z,1000.00
2019-04-20T12:15:32.210Z,1000.00
2019-04-20T12:16:30.224Z,1000.00
2019-04-20T12:17:31.447Z,996.00
2019-04-20T12:18:31.588Z,988.00
2019-04-20T12:19:31.155Z,988.00
2019-04-20T12:20:30.225Z,980.00
2019-04-20T12:21:30.739Z,984.00
2019-04-20T12:22:30.424Z,992.00
2019-04-20T12:23:30.768Z,996.00
2019-04-20T12:24:31.244Z,1000.00
2019-04-20T12:25:34.207Z,1004.00
2019-04-20T12:26:31.008Z,1004.00
2019-04-20T12:27:30.481Z,1004.00
2019-04-20T12:28:31.269Z,996.00
2019-04-20T12:29:30.088Z,972.00
2019-04-20T12:30:30.091Z,960.00
2019-04-20T12:31:31.393Z,972.00
2019-04-20T12:32:35.283Z,980.00
2019-04-20T12:33:30.704Z,968.00
2019-04-20T12:34:30.699Z,960.00
2019-04-20T12:35:30.066Z,968.00
2019-04-20T12:36:30.280Z,940.00
2019-04-20T12:37:31.224Z,952.00
2019-04-20T12:38:30.778Z,972.00
2019-04-20T12:39:31.227Z,976.00
2019-04-20T12:40:30.203Z,940.00
2019-04-20T12:41:37.866Z,944.00
2019-04-20T12:42:30.993Z,948.00
2019-04-20T12:43:29.969Z,932.00
2019-04-20T12:44:30.043Z,936.00
2019-04-20T12:45:29.914Z,924.00
2019-04-20T12:46:29.902Z,904.00
2019-04-20T12:47:29.992Z,912.00
2019-04-20T12:48:31.186Z,904.00
2019-04-20T12:49:29.881Z,912.00
2019-04-20T12:50:31.830Z,896.00
2019-04-20T12:51:33.550Z,868.00
2019-04-20T12:52:30.378Z,864.00
2019-04-20T12:53:30.725Z,860.00
2019-04-20T12:54:29.869Z,844.00
2019-04-20T12:55:30.553Z,836.00
2019-04-20T12:56:30.641Z,796.00
2019-04-20T12:57:29.785Z,808.00
2019-04-20T12:58:30.596Z,788.00
2019-04-20T12:59:29.831Z,720.00
2019-04-20T13:00:29.793Z,716.00
2019-04-20T13:01:30.211Z,740.00